Time;durP1;ratioP1;P1;durP2;ratioP2;P2;SDS_P1;SDS_P2;PMS_P1;PMS_P2;Temp;Humidity;BMP_temperature;BMP_pressure;BME280_temperature;BME280_humidity;BME280_pressure;Samples;Min_cycle;Max_cycle;Signal;HPM_P1;HPM_P2
2022/10/02 00:01:05;;;;;;;10.63;3.70;;;;;;;;;;10239060;28;20133;-77
2022/10/02 00:06:10;;;;;;;7.68;3.53;;;;;;;;;;10238081;28;20039;-78
2022/10/02 00:11:21;;;;;;;8.10;3.28;;;;;;;;;;10237479;28;20074;-75
2022/10/02 00:16:25;;;;;;;9.25;3.17;;;;;;;;;;10236551;28;20114;-77
2022/10/02 00:21:28;;;;;;;8.50;3.83;;;;;;;;;;10236249;28;20202;-74
2022/10/02 00:26:28;;;;;;;7.18;2.67;;;;;;;;;;10236787;28;20085;-77
2022/10/02 00:31:47;;;;;;;6.00;3.83;;;;;;;;;;10236874;28;20527;-74
2022/10/02 00:36:57;;;;;;;10.65;4.25;;;;;;;;;;10235641;28;20019;-75
2022/10/02 00:42:16;;;;;;;12.60;4.97;;;;;;;;;;10235928;28;20027;-73
2022/10/02 00:47:16;;;;;;;9.13;4.70;;;;;;;;;;10236173;28;20022;-76
2022/10/02 00:52:42;;;;;;;12.75;5.35;;;;;;;;;;10236650;28;20058;-76
2022/10/02 00:58:01;;;;;;;23.92;7.32;;;;;;;;;;10247196;28;20035;-76
2022/10/02 01:03:10;;;;;;;5.97;4.95;;;;;;;;;;10235743;28;20023;-79
2022/10/02 01:08:11;;;;;;;10.77;5.78;;;;;;;;;;10235831;29;20051;-74
2022/10/02 01:13:11;;;;;;;10.35;5.88;;;;;;;;;;10235465;28;20042;-73
2022/10/02 01:18:12;;;;;;;11.27;6.13;;;;;;;;;;10232990;28;20442;-78
2022/10/02 01:23:23;;;;;;;5.72;4.00;;;;;;;;;;10233479;28;20023;-76
2022/10/02 01:28:23;;;;;;;6.38;4.07;;;;;;;;;;10236170;28;20034;-77
2022/10/02 01:33:24;;;;;;;8.38;3.72;;;;;;;;;;10234831;28;20019;-77
2022/10/02 01:38:24;;;;;;;4.77;3.27;;;;;;;;;;10235246;28;20560;-74
2022/10/02 01:43:33;;;;;;;4.55;1.95;;;;;;;;;;10235415;28;20019;-78
2022/10/02 01:48:33;;;;;;;;;;;;;;;;;;10241852;28;20027;-76
2022/10/02 01:53:52;;;;;;;6.80;2.75;;;;;;;;;;10242075;28;20317;-76
2022/10/02 01:59:06;;;;;;;3.92;3.00;;;;;;;;;;10242530;28;20019;-76
2022/10/02 02:04:23;;;;;;;3.55;2.80;;;;;;;;;;10240304;28;20019;-77
2022/10/02 02:09:26;;;;;;;3.92;2.67;;;;;;;;;;10240134;28;20023;-74
2022/10/02 02:14:32;;;;;;;12.27;2.95;;;;;;;;;;10241625;28;20118;-74
2022/10/02 02:19:41;;;;;;;2.60;1.50;;;;;;;;;;10241551;28;20015;-77
2022/10/02 02:24:44;;;;;;;2.35;1.88;;;;;;;;;;10241285;28;20109;-76
2022/10/02 02:29:47;;;;;;;1.67;1.20;;;;;;;;;;10239769;28;20023;-79
2022/10/02 02:34:56;;;;;;;5.70;1.52;;;;;;;;;;10240635;28;20027;-76
2022/10/02 02:39:59;;;;;;;4.10;1.48;;;;;;;;;;10239717;28;20035;-75
2022/10/02 02:45:05;;;;;;;6.72;1.50;;;;;;;;;;10241385;28;20023;-74
2022/10/02 02:50:15;;;;;;;5.88;1.95;;;;;;;;;;10238747;28;20081;-72
2022/10/02 02:55:21;;;;;;;2.65;1.58;;;;;;;;;;10239268;28;20059;-72
2022/10/02 03:00:21;;;;;;;2.75;2.05;;;;;;;;;;10238439;28;20038;-75
2022/10/02 03:05:23;;;;;;;4.28;2.00;;;;;;;;;;10239842;28;20387;-74
2022/10/02 03:10:41;;;;;;;4.15;3.75;;;;;;;;;;10237775;28;20110;-74
2022/10/02 03:15:50;;;;;;;8.80;2.88;;;;;;;;;;10238219;28;20027;-77
2022/10/02 03:21:00;;;;;;;3.88;3.20;;;;;;;;;;10239294;28;20023;-76
2022/10/02 03:26:03;;;;;;;6.15;3.38;;;;;;;;;;10238095;28;20110;-78
2022/10/02 03:31:04;;;;;;;4.85;3.80;;;;;;;;;;10238964;28;20016;-76
2022/10/02 03:36:04;;;;;;;7.00;4.88;;;;;;;;;;10237943;28;20023;-76
2022/10/02 03:41:05;;;;;;;5.45;3.35;;;;;;;;;;10238594;28;20030;-73
2022/10/02 03:46:05;;;;;;;5.13;3.97;;;;;;;;;;10221414;28;20023;-78
2022/10/02 03:51:05;;;;;;;7.60;3.60;;;;;;;;;;10237225;28;20047;-76
2022/10/02 03:56:12;;;;;;;6.63;3.45;;;;;;;;;;10237913;28;20078;-80
2022/10/02 04:01:19;;;;;;;4.63;3.55;;;;;;;;;;10237714;28;20575;-76
2022/10/02 04:06:22;;;;;;;12.75;10.32;;;;;;;;;;10236545;28;20086;-78
2022/10/02 04:11:30;;;;;;;4.95;4.00;;;;;;;;;;10236840;28;20038;-77
2022/10/02 04:16:47;;;;;;;5.07;4.60;;;;;;;;;;10236020;28;20023;-78
2022/10/02 04:21:50;;;;;;;5.22;4.07;;;;;;;;;;10232893;28;20031;-73
2022/10/02 04:27:03;;;;;;;4.85;4.28;;;;;;;;;;10237650;28;20533;-77
2022/10/02 04:32:11;;;;;;;8.60;4.05;;;;;;;;;;10234021;28;20499;-77
2022/10/02 04:37:17;;;;;;;24.57;21.97;;;;;;;;;;10236859;28;20054;-78
2022/10/02 04:42:18;;;;;;;4.80;3.75;;;;;;;;;;10234107;28;20334;-77
2022/10/02 04:47:26;;;;;;;5.30;4.80;;;;;;;;;;10233919;28;20049;-77
2022/10/02 04:52:35;;;;;;;11.52;4.78;;;;;;;;;;10248362;28;20305;-76
2022/10/02 04:57:54;;;;;;;9.15;5.93;;;;;;;;;;10234719;28;20027;-76
2022/10/02 05:03:10;;;;;;;704.08;642.42;;;;;;;;;;10236615;28;20033;-76
2022/10/02 05:08:29;;;;;;;5.10;4.22;;;;;;;;;;10235947;28;20043;-77
2022/10/02 05:13:48;;;;;;;7.43;4.00;;;;;;;;;;10232595;28;20030;-73
2022/10/02 05:18:54;;;;;;;4.90;3.60;;;;;;;;;;10248156;28;20024;-80
2022/10/02 05:23:54;;;;;;;8.77;3.65;;;;;;;;;;10252893;28;20031;-77
2022/10/02 05:29:07;;;;;;;5.50;3.58;;;;;;;;;;10243108;28;20051;-80
2022/10/02 05:34:07;;;;;;;7.43;2.95;;;;;;;;;;10257335;28;20413;-74
2022/10/02 05:39:11;;;;;;;4.90;4.07;;;;;;;;;;10244500;28;20038;-78
2022/10/02 05:44:14;;;;;;;3.70;2.70;;;;;;;;;;10242718;28;20584;-82
2022/10/02 05:49:21;;;;;;;4.07;2.72;;;;;;;;;;10240308;28;20050;-78
2022/10/02 05:54:42;;;;;;;2.65;2.20;;;;;;;;;;10242029;28;20533;-78
2022/10/02 05:59:46;;;;;;;7.80;2.58;;;;;;;;;;10241796;28;20469;-80
2022/10/02 06:04:52;;;;;;;2.90;2.70;;;;;;;;;;10236973;28;20604;-80
2022/10/02 06:10:05;;;;;;;5.68;2.72;;;;;;;;;;10238904;28;20038;-76
2022/10/02 06:15:21;;;;;;;2.92;2.58;;;;;;;;;;10227887;28;20771;-74
2022/10/02 06:20:21;;;;;;;4.47;2.67;;;;;;;;;;10239472;28;20486;-79
2022/10/02 06:25:26;;;;;;;2.50;2.17;;;;;;;;;;10238723;28;20027;-80
2022/10/02 06:30:28;;;;;;;8.45;2.80;;;;;;;;;;10239343;28;20485;-79
2022/10/02 06:35:28;;;;;;;13.38;2.70;;;;;;;;;;10239003;29;20054;-78
2022/10/02 06:40:31;;;;;;;6.88;2.60;;;;;;;;;;10241635;28;20046;-79
2022/10/02 06:45:39;;;;;;;11.57;2.60;;;;;;;;;;10239402;28;20055;-75
2022/10/02 06:50:46;;;;;;;2.97;2.67;;;;;;;;;;10236484;28;20052;-75
2022/10/02 06:55:59;;;;;;;5.43;2.60;;;;;;;;;;10238726;28;20039;-81
2022/10/02 07:01:05;;;;;;;9.20;3.72;;;;;;;;;;10235983;28;20486;-80
2022/10/02 07:06:05;;;;;;;3.72;2.78;;;;;;;;;;10233426;28;20031;-80
2022/10/02 07:11:31;;;;;;;4.40;2.33;;;;;;;;;;10235078;28;20496;-78
2022/10/02 07:16:44;;;;;;;3.13;2.25;;;;;;;;;;10235658;28;20022;-77
2022/10/02 07:22:03;;;;;;;4.28;2.53;;;;;;;;;;10238315;28;20062;-82
2022/10/02 07:27:22;;;;;;;4.68;2.35;;;;;;;;;;10238541;28;20453;-77
2022/10/02 07:32:29;;;;;;;3.03;2.20;;;;;;;;;;10235804;28;20078;-78
2022/10/02 07:37:48;;;;;;;2.65;1.70;;;;;;;;;;10237622;28;20573;-76
2022/10/02 07:42:58;;;;;;;5.32;1.80;;;;;;;;;;10236376;28;20043;-77
2022/10/02 07:48:24;;;;;;;1.58;1.48;;;;;;;;;;10237814;28;20446;-75
2022/10/02 07:53:39;;;;;;;3.05;1.65;;;;;;;;;;10236948;29;20055;-78
2022/10/02 07:58:43;;;;;;;2.22;1.58;;;;;;;;;;10237138;28;20023;-75
2022/10/02 08:03:43;;;;;;;1.50;1.30;;;;;;;;;;10237261;28;20041;-80
2022/10/02 08:08:55;;;;;;;3.00;1.45;;;;;;;;;;10236346;28;20023;-79
2022/10/02 08:13:55;;;;;;;3.42;1.33;;;;;;;;;;10237053;28;20560;-74
2022/10/02 08:19:00;;;;;;;10.40;1.20;;;;;;;;;;10236808;28;20175;-75
2022/10/02 08:24:07;;;;;;;4.57;1.15;;;;;;;;;;10235770;28;20055;-79
2022/10/02 08:29:16;;;;;;;3.57;2.40;;;;;;;;;;10238065;28;20397;-74
2022/10/02 08:34:18;;;;;;;4.00;1.10;;;;;;;;;;10238138;28;20031;-78
2022/10/02 08:39:37;;;;;;;2.10;1.10;;;;;;;;;;10237886;28;20035;-78
2022/10/02 08:44:57;;;;;;;1.23;0.93;;;;;;;;;;10234715;28;20022;-79
2022/10/02 08:50:10;;;;;;;2.15;1.48;;;;;;;;;;10205453;28;20051;-73
2022/10/02 08:55:28;;;;;;;3.00;1.00;;;;;;;;;;10232515;28;20534;-77
2022/10/02 09:00:34;;;;;;;3.03;1.13;;;;;;;;;;10234500;28;20038;-77
2022/10/02 09:05:38;;;;;;;1.13;0.98;;;;;;;;;;10234390;28;20031;-74
2022/10/02 09:10:44;;;;;;;2.05;1.20;;;;;;;;;;10235335;28;20046;-76
2022/10/02 09:16:13;;;;;;;2.42;1.17;;;;;;;;;;10232130;28;20019;-77
2022/10/02 09:21:18;;;;;;;1.33;1.00;;;;;;;;;;10185241;28;20039;-78
2022/10/02 09:26:19;;;;;;;1.65;1.30;;;;;;;;;;10235557;28;20094;-77
2022/10/02 09:31:19;;;;;;;4.18;1.13;;;;;;;;;;10234928;28;20059;-78
2022/10/02 09:36:23;;;;;;;1.23;1.10;;;;;;;;;;10238218;28;20058;-82
2022/10/02 09:41:30;;;;;;;1.00;0.88;;;;;;;;;;10234244;28;20071;-72
2022/10/02 09:46:54;;;;;;;3.08;1.13;;;;;;;;;;10233737;28;20741;-80
2022/10/02 09:52:00;;;;;;;1.98;1.08;;;;;;;;;;10236078;28;20126;-75
2022/10/02 09:57:19;;;;;;;2.67;1.40;;;;;;;;;;10234643;28;20038;-75
2022/10/02 10:02:33;;;;;;;7.85;1.10;;;;;;;;;;10235049;28;20031;-79
2022/10/02 10:07:52;;;;;;;1.88;1.02;;;;;;;;;;10238421;28;20027;-75
2022/10/02 10:13:11;;;;;;;4.70;0.93;;;;;;;;;;10242216;28;20027;-74
2022/10/02 10:18:29;;;;;;;4.28;0.90;;;;;;;;;;10242476;28;20486;-77
2022/10/02 10:23:35;;;;;;;1.65;1.00;;;;;;;;;;10241331;28;20099;-79
2022/10/02 10:28:51;;;;;;;1.90;0.73;;;;;;;;;;10239413;28;20019;-74
2022/10/02 10:33:52;;;;;;;1.08;0.70;;;;;;;;;;10239089;28;20118;-76
2022/10/02 10:39:02;;;;;;;5.07;0.68;;;;;;;;;;10241644;28;20106;-73
2022/10/02 10:44:05;;;;;;;1.85;0.47;;;;;;;;;;10241994;28;20035;-76
2022/10/02 10:49:24;;;;;;;1.63;0.63;;;;;;;;;;10239402;28;20063;-80
2022/10/02 10:54:43;;;;;;;2.17;0.85;;;;;;;;;;10240136;28;20043;-74
2022/10/02 10:59:55;;;;;;;3.28;0.60;;;;;;;;;;10241403;28;20500;-80
2022/10/02 11:04:57;;;;;;;1.08;0.60;;;;;;;;;;10238804;28;20023;-79
2022/10/02 11:10:15;;;;;;;1.50;0.68;;;;;;;;;;10240544;28;20019;-74
2022/10/02 11:15:34;;;;;;;2.42;0.70;;;;;;;;;;10237021;28;20485;-78
2022/10/02 11:21:09;;;;;;;1.15;0.70;;;;;;;;;;10236699;28;20441;-79
2022/10/02 11:26:26;;;;;;;0.93;0.60;;;;;;;;;;10188051;28;20426;-74
2022/10/02 11:31:26;;;;;;;3.50;0.70;;;;;;;;;;10238379;28;20035;-74
2022/10/02 11:36:41;;;;;;;1.65;0.95;;;;;;;;;;10236066;28;20030;-80
2022/10/02 11:41:50;;;;;;;1.52;1.10;;;;;;;;;;10236989;28;20035;-79
2022/10/02 11:47:09;;;;;;;2.08;1.35;;;;;;;;;;10238391;28;20489;-80
2022/10/02 11:52:42;;;;;;;1.92;1.30;;;;;;;;;;10238047;28;20046;-78
2022/10/02 11:57:46;;;;;;;1.73;1.15;;;;;;;;;;10185582;28;20050;-77
2022/10/02 12:02:49;;;;;;;1.02;0.70;;;;;;;;;;10237191;28;20437;-81
2022/10/02 12:07:51;;;;;;;0.80;0.80;;;;;;;;;;10236281;28;20035;-78
2022/10/02 12:13:01;;;;;;;3.17;1.48;;;;;;;;;;10236349;28;20035;-79
2022/10/02 12:18:01;;;;;;;1.25;0.88;;;;;;;;;;10236275;28;20031;-74
2022/10/02 12:28:36;;;;;;;1.65;1.35;;;;;;;;;;10237573;28;20023;-74
2022/10/02 12:33:36;;;;;;;3.00;1.38;;;;;;;;;;10232609;28;20031;-74
2022/10/02 12:38:41;;;;;;;4.00;1.33;;;;;;;;;;10225675;28;20035;-74
2022/10/02 12:44:04;;;;;;;3.70;1.30;;;;;;;;;;10219138;28;20545;-74
2022/10/02 12:49:11;;;;;;;1.85;1.55;;;;;;;;;;10226650;28;20058;-74
2022/10/02 12:54:26;;;;;;;2.17;1.30;;;;;;;;;;10224772;29;20502;-78
2022/10/02 12:59:36;;;;;;;2.40;1.40;;;;;;;;;;10228424;28;20035;-74
2022/10/02 13:04:52;;;;;;;1.40;1.00;;;;;;;;;;10223263;28;20039;-74
2022/10/02 13:09:52;;;;;;;10.65;1.60;;;;;;;;;;10233841;28;20031;-75
2022/10/02 13:15:01;;;;;;;1.70;1.30;;;;;;;;;;10230936;28;20031;-75
2022/10/02 13:20:01;;;;;;;4.38;1.10;;;;;;;;;;10233094;28;20041;-76
2022/10/02 13:25:20;;;;;;;5.93;1.42;;;;;;;;;;10232731;28;20045;-75
2022/10/02 13:30:22;;;;;;;3.97;1.45;;;;;;;;;;10233712;28;20032;-74
2022/10/02 13:35:29;;;;;;;1.55;1.08;;;;;;;;;;10230559;28;20038;-77
2022/10/02 13:40:35;;;;;;;2.50;1.05;;;;;;;;;;10234862;28;20402;-79
2022/10/02 13:45:35;;;;;;;1.70;1.17;;;;;;;;;;10239961;28;20027;-78
2022/10/02 13:50:36;;;;;;;4.45;1.60;;;;;;;;;;10241582;28;20055;-73
2022/10/02 13:55:41;;;;;;;5.07;1.10;;;;;;;;;;10240875;28;20039;-77
2022/10/02 14:00:51;;;;;;;1.65;1.10;;;;;;;;;;10237662;28;20773;-75
2022/10/02 14:06:11;;;;;;;2.03;1.20;;;;;;;;;;10235494;28;20027;-74
2022/10/02 14:11:14;;;;;;;1.95;0.95;;;;;;;;;;10232163;28;20114;-78
2022/10/02 14:16:27;;;;;;;1.85;1.17;;;;;;;;;;10224827;28;20028;-73
2022/10/02 14:21:27;;;;;;;2.63;1.92;;;;;;;;;;10246722;28;20097;-74
2022/10/02 14:26:46;;;;;;;0.85;0.85;;;;;;;;;;10238731;28;20027;-74
2022/10/02 14:31:46;;;;;;;5.07;1.10;;;;;;;;;;10235114;28;20086;-74
2022/10/02 14:36:49;;;;;;;1.42;1.10;;;;;;;;;;10241502;28;20101;-76
2022/10/02 14:41:50;;;;;;;1.88;1.33;;;;;;;;;;10238249;28;20042;-75
2022/10/02 14:46:58;;;;;;;2.08;1.10;;;;;;;;;;10240146;28;20382;-74
2022/10/02 14:52:16;;;;;;;1.17;1.10;;;;;;;;;;10237258;28;20043;-74
2022/10/02 14:57:55;;;;;;;2.35;1.50;;;;;;;;;;10237475;28;20075;-75
2022/10/02 15:03:00;;;;;;;2.03;1.30;;;;;;;;;;10137815;29;20423;-74
2022/10/02 15:08:04;;;;;;;4.25;1.30;;;;;;;;;;10222444;28;20027;-74
2022/10/02 15:13:28;;;;;;;2.35;1.58;;;;;;;;;;10233883;28;20042;-73
2022/10/02 15:18:47;;;;;;;1.73;1.55;;;;;;;;;;10235286;28;20027;-75
2022/10/02 15:23:51;;;;;;;2.92;1.42;;;;;;;;;;10234094;28;20031;-72
2022/10/02 15:29:06;;;;;;;3.78;1.70;;;;;;;;;;10232782;28;20512;-75
2022/10/02 15:34:14;;;;;;;3.90;1.40;;;;;;;;;;10235802;28;20081;-74
2022/10/02 15:39:33;;;;;;;1.70;0.83;;;;;;;;;;10233097;28;20023;-74
2022/10/02 15:44:36;;;;;;;1.77;1.35;;;;;;;;;;10234481;28;20015;-74
2022/10/02 15:49:36;;;;;;;1.27;1.17;;;;;;;;;;10234183;28;20529;-74
2022/10/02 15:54:40;;;;;;;2.78;1.05;;;;;;;;;;10236406;28;20118;-73
2022/10/02 15:59:50;;;;;;;2.88;1.17;;;;;;;;;;10237341;28;20034;-73
2022/10/02 16:04:53;;;;;;;2.17;1.52;;;;;;;;;;10241180;28;20031;-79
2022/10/02 16:10:00;;;;;;;2.33;1.33;;;;;;;;;;10237892;28;20035;-77
2022/10/02 16:15:12;;;;;;;3.83;1.50;;;;;;;;;;10236981;28;20421;-72
2022/10/02 16:20:26;;;;;;;1.58;1.20;;;;;;;;;;10238208;28;20031;-73
2022/10/02 16:25:32;;;;;;;2.85;1.30;;;;;;;;;;10232978;28;20441;-75
2022/10/02 16:30:39;;;;;;;1.17;1.08;;;;;;;;;;10236346;28;20073;-73
2022/10/02 16:35:39;;;;;;;1.60;1.05;;;;;;;;;;10232243;28;20027;-74
2022/10/02 16:40:57;;;;;;;5.17;1.43;;;;;;;;;;10229905;28;20330;-74
2022/10/02 16:46:13;;;;;;;4.70;1.10;;;;;;;;;;10216163;29;20043;-75
2022/10/02 16:51:16;;;;;;;3.92;1.60;;;;;;;;;;10211467;28;20055;-74
2022/10/02 16:56:28;;;;;;;9.30;1.67;;;;;;;;;;10210892;28;20046;-75
2022/10/02 17:01:43;;;;;;;5.10;1.60;;;;;;;;;;10204888;29;20066;-74
2022/10/02 17:06:52;;;;;;;9.75;1.92;;;;;;;;;;10212491;29;20028;-77
2022/10/02 17:11:57;;;;;;;4.40;1.40;;;;;;;;;;10221203;28;20078;-73
2022/10/02 17:17:00;;;;;;;1.73;1.40;;;;;;;;;;10211380;28;20032;-74
2022/10/02 17:22:19;;;;;;;3.33;1.83;;;;;;;;;;10220799;29;20796;-73
2022/10/02 17:27:32;;;;;;;2.10;1.27;;;;;;;;;;10213429;28;20110;-74
2022/10/02 17:32:50;;;;;;;3.42;1.95;;;;;;;;;;10212751;28;20117;-74
2022/10/02 17:37:50;;;;;;;;;;;;;;;;;;10232219;28;20019;-74
2022/10/02 17:42:51;;;;;;;7.70;1.25;;;;;;;;;;10232724;28;19919;-74
2022/10/02 17:47:58;;;;;;;10.98;2.00;;;;;;;;;;10236196;28;20023;-73
2022/10/02 17:58:44;;;;;;;1.98;1.23;;;;;;;;;;10229948;28;20023;-74
2022/10/02 18:04:01;;;;;;;31.77;28.35;;;;;;;;;;10232818;28;20499;-80
2022/10/02 18:09:06;;;;;;;4.93;1.98;;;;;;;;;;10232150;28;20025;-78
2022/10/02 18:14:25;;;;;;;5.57;1.50;;;;;;;;;;10238287;28;20153;-78
2022/10/02 18:19:35;;;;;;;2.97;1.42;;;;;;;;;;10241880;28;20463;-78
2022/10/02 18:24:52;;;;;;;1.75;1.48;;;;;;;;;;10225019;28;20024;-77
2022/10/02 18:29:58;;;;;;;9.23;4.53;;;;;;;;;;10231765;28;20023;-75
2022/10/02 18:35:14;;;;;;;3.35;1.67;;;;;;;;;;10224161;29;20046;-81
2022/10/02 18:40:14;;;;;;;3.13;1.15;;;;;;;;;;10220232;28;20123;-77
2022/10/02 18:45:25;;;;;;;5.95;1.85;;;;;;;;;;10243409;28;20031;-75
2022/10/02 18:50:35;;;;;;;1.77;1.40;;;;;;;;;;10236578;28;20683;-80
2022/10/02 18:56:15;;;;;;;1.23;1.13;;;;;;;;;;10224333;28;20087;-79
2022/10/02 19:01:15;;;;;;;;;;;;;;;;;;10129549;29;20063;-78
2022/10/02 19:06:20;;;;;;;5.15;2.47;;;;;;;;;;10221244;28;19914;-78
2022/10/02 19:11:25;;;;;;;3.20;1.60;;;;;;;;;;10229323;28;20024;-76
2022/10/02 19:16:26;;;;;;;3.05;1.70;;;;;;;;;;10229287;28;20031;-77
2022/10/02 19:21:26;;;;;;;2.17;1.37;;;;;;;;;;10216215;28;20031;-78
2022/10/02 19:26:29;;;;;;;5.25;1.48;;;;;;;;;;10232286;28;20046;-79
2022/10/02 19:31:30;;;;;;;4.03;2.20;;;;;;;;;;10230887;28;20020;-74
2022/10/02 19:36:32;;;;;;;6.78;2.72;;;;;;;;;;10235299;28;20513;-73
2022/10/02 19:41:40;;;;;;;7.05;2.20;;;;;;;;;;10230824;28;20053;-73
2022/10/02 19:46:43;;;;;;;4.30;2.55;;;;;;;;;;10212680;28;20023;-75
2022/10/02 19:51:44;;;;;;;8.32;2.90;;;;;;;;;;10220614;28;20130;-72
2022/10/02 19:56:45;;;;;;;6.55;2.80;;;;;;;;;;10233212;28;20038;-73
2022/10/02 20:01:50;;;;;;;5.38;2.67;;;;;;;;;;10228613;28;20023;-75
2022/10/02 20:06:54;;;;;;;8.43;3.42;;;;;;;;;;10227603;28;20563;-72
2022/10/02 20:11:59;;;;;;;8.82;2.80;;;;;;;;;;10237890;28;20508;-76
2022/10/02 20:17:09;;;;;;;4.70;2.92;;;;;;;;;;10232257;28;20486;-75
2022/10/02 20:22:12;;;;;;;4.43;2.58;;;;;;;;;;10234711;28;20023;-79
2022/10/02 20:27:16;;;;;;;3.78;2.00;;;;;;;;;;10235517;28;20031;-72
2022/10/02 20:32:21;;;;;;;4.07;2.25;;;;;;;;;;10235448;29;20121;-77
2022/10/02 20:37:22;;;;;;;4.32;1.83;;;;;;;;;;10233524;29;20032;-76
2022/10/02 20:42:28;;;;;;;7.32;2.00;;;;;;;;;;10232674;29;20023;-79
2022/10/02 20:47:47;;;;;;;4.13;1.73;;;;;;;;;;10230630;29;20062;-76
2022/10/02 20:53:06;;;;;;;4.72;2.00;;;;;;;;;;10237062;28;20082;-76
2022/10/02 20:58:09;;;;;;;3.33;2.00;;;;;;;;;;10236625;28;20042;-73
2022/10/02 21:03:10;;;;;;;2.17;1.63;;;;;;;;;;10224835;28;20034;-74
2022/10/02 21:08:29;;;;;;;3.63;1.23;;;;;;;;;;10235644;28;20031;-80
2022/10/02 21:13:43;;;;;;;1.95;1.02;;;;;;;;;;10226210;28;20036;-77
2022/10/02 21:18:53;;;;;;;2.22;1.38;;;;;;;;;;10243655;28;20417;-76
2022/10/02 21:23:56;;;;;;;2.45;1.08;;;;;;;;;;10227166;28;20031;-76
2022/10/02 21:29:08;;;;;;;4.45;1.20;;;;;;;;;;10233784;28;20019;-78
2022/10/02 21:34:17;;;;;;;1.65;1.13;;;;;;;;;;10222685;28;20078;-77
2022/10/02 21:39:26;;;;;;;2.22;1.10;;;;;;;;;;10236076;28;20027;-73
2022/10/02 21:44:29;;;;;;;1.92;1.52;;;;;;;;;;10233769;28;20046;-77
2022/10/02 21:49:33;;;;;;;1.85;1.38;;;;;;;;;;10219860;28;20050;-75
2022/10/02 21:54:52;;;;;;;1.63;0.98;;;;;;;;;;10229394;28;20114;-76
2022/10/02 22:00:14;;;;;;;2.10;1.33;;;;;;;;;;10215304;28;20019;-79
2022/10/02 22:05:33;;;;;;;1.08;0.80;;;;;;;;;;10230932;29;20024;-78
2022/10/02 22:10:54;;;;;;;1.02;0.93;;;;;;;;;;10233839;29;20019;-78
2022/10/02 22:16:13;;;;;;;1.98;1.13;;;;;;;;;;10231856;29;20027;-79
2022/10/02 22:21:28;;;;;;;1.70;1.13;;;;;;;;;;10223484;29;20522;-77
2022/10/02 22:26:28;;;;;;;1.45;0.93;;;;;;;;;;10229563;29;20026;-74
2022/10/02 22:31:32;;;;;;;1.10;1.00;;;;;;;;;;10228535;28;20438;-78
2022/10/02 22:36:35;;;;;;;1.85;0.82;;;;;;;;;;10227042;29;20023;-77
2022/10/02 22:41:37;;;;;;;1.20;0.90;;;;;;;;;;10228441;28;20023;-82
2022/10/02 22:46:51;;;;;;;1.25;0.90;;;;;;;;;;10228349;28;20098;-78
2022/10/02 22:52:04;;;;;;;2.75;0.90;;;;;;;;;;10282410;23;20053;-76
2022/10/02 22:57:08;;;;;;;1.27;1.05;;;;;;;;;;10290073;28;20114;-74
2022/10/02 23:02:21;;;;;;;1.10;1.00;;;;;;;;;;10307840;28;20052;-79
2022/10/02 23:07:33;;;;;;;3.85;1.30;;;;;;;;;;10306095;28;20026;-73
2022/10/02 23:12:35;;;;;;;3.45;0.98;;;;;;;;;;10307931;28;20031;-78
2022/10/02 23:17:35;;;;;;;2.58;0.95;;;;;;;;;;10291657;28;20022;-77
2022/10/02 23:22:38;;;;;;;2.15;0.77;;;;;;;;;;10293241;28;20039;-77
2022/10/02 23:27:45;;;;;;;153.25;137.52;;;;;;;;;;10291948;28;20060;-79
2022/10/02 23:33:12;;;;;;;1.63;1.15;;;;;;;;;;10303295;28;20252;-78
2022/10/02 23:38:22;;;;;;;2.63;1.23;;;;;;;;;;10290720;28;20022;-81
2022/10/02 23:43:31;;;;;;;0.70;0.60;;;;;;;;;;10309858;28;20027;-77
2022/10/02 23:48:32;;;;;;;3.92;2.63;;;;;;;;;;10283887;28;20015;-79
2022/10/02 23:53:35;;;;;;;5.97;4.78;;;;;;;;;;10288669;28;20110;-81
2022/10/02 23:58:51;;;;;;;515.50;466.73;;;;;;;;;;10292206;28;20073;-79
